Time;durP1;ratioP1;P1;durP2;ratioP2;P2;SDS_P1;SDS_P2;PMS_P1;PMS_P2;Temp;Humidity;BMP_temperature;BMP_pressure;BME280_temperature;BME280_humidity;BME280_pressure;Samples;Min_cycle;Max_cycle;Signal;HPM_P1;HPM_P2
2023/08/25 00:00:20;;;;;;;10.68;5.95;;;;;;;;;;4997312;28;20495;-65
2023/08/25 00:02:47;;;;;;;11.10;6.68;;;;;;;;;;4998100;28;20056;-66
2023/08/25 00:05:13;;;;;;;11.52;5.97;;;;;;;;;;5000587;28;20028;-66
2023/08/25 00:07:39;;;;;;;10.63;6.10;;;;;;;;;;5017419;28;20091;-65
2023/08/25 00:10:05;;;;;;;10.88;5.28;;;;;;;;;;5017288;28;20277;-65
2023/08/25 00:12:32;;;;;;;9.25;5.03;;;;;;;;;;5014083;28;20043;-66
2023/08/25 00:14:58;;;;;;;11.10;5.03;;;;;;;;;;5012490;28;20030;-66
2023/08/25 00:17:24;;;;;;;11.40;5.70;;;;;;;;;;5001343;28;20041;-66
2023/08/25 00:19:51;;;;;;;11.18;5.68;;;;;;;;;;5017600;28;20021;-66
2023/08/25 00:22:18;;;;;;;12.38;5.63;;;;;;;;;;5018978;28;20478;-66
2023/08/25 00:24:44;;;;;;;9.10;5.00;;;;;;;;;;5001232;28;20140;-66
2023/08/25 00:27:10;;;;;;;10.50;4.97;;;;;;;;;;5018064;28;20044;-66
2023/08/25 00:29:36;;;;;;;9.55;5.32;;;;;;;;;;5014641;28;20034;-66
2023/08/25 00:32:03;;;;;;;11.15;5.15;;;;;;;;;;5020666;28;21102;-67
2023/08/25 00:34:29;;;;;;;11.43;5.28;;;;;;;;;;4998377;28;20033;-66
2023/08/25 00:36:55;;;;;;;10.85;5.30;;;;;;;;;;5019959;28;20515;-66
2023/08/25 00:39:21;;;;;;;10.50;4.78;;;;;;;;;;5016755;28;20116;-66
2023/08/25 00:41:47;;;;;;;8.90;5.07;;;;;;;;;;5018831;28;20017;-66
2023/08/25 00:44:13;;;;;;;11.30;5.57;;;;;;;;;;5017966;28;20068;-65
2023/08/25 00:46:39;;;;;;;10.68;5.45;;;;;;;;;;4999903;28;20062;-65
2023/08/25 00:49:06;;;;;;;10.65;5.32;;;;;;;;;;5016883;28;20028;-65
2023/08/25 00:51:32;;;;;;;10.50;5.65;;;;;;;;;;5000669;28;20295;-65
2023/08/25 00:53:58;;;;;;;10.88;5.75;;;;;;;;;;4996485;28;20037;-65
2023/08/25 00:56:25;;;;;;;11.50;5.50;;;;;;;;;;5000691;28;20507;-65
2023/08/25 00:58:51;;;;;;;10.65;5.72;;;;;;;;;;5017852;28;20306;-66
2023/08/25 01:01:17;;;;;;;10.02;5.40;;;;;;;;;;5016198;28;20453;-66
2023/08/25 01:03:44;;;;;;;15.77;5.60;;;;;;;;;;5016512;28;20040;-66
2023/08/25 01:06:11;;;;;;;10.30;5.30;;;;;;;;;;5003009;28;20037;-66
2023/08/25 01:08:38;;;;;;;10.57;5.20;;;;;;;;;;5020679;28;20029;-66
2023/08/25 01:11:23;;;;;;;12.40;5.53;;;;;;;;;;5018156;28;20440;-66
2023/08/25 01:13:57;;;;;;;10.13;5.40;;;;;;;;;;5015305;28;20356;-66
2023/08/25 01:16:28;;;;;;;11.37;5.67;;;;;;;;;;5013816;28;20048;-66
2023/08/25 01:18:55;;;;;;;11.77;5.53;;;;;;;;;;5020391;28;20388;-65
2023/08/25 01:21:21;;;;;;;10.98;5.30;;;;;;;;;;5014336;28;20029;-66
2023/08/25 01:23:56;;;;;;;11.60;5.82;;;;;;;;;;5018224;28;20039;-65
2023/08/25 01:26:23;;;;;;;10.93;5.20;;;;;;;;;;5011095;28;20037;-66
2023/08/25 01:28:53;;;;;;;9.98;5.30;;;;;;;;;;5017212;28;20029;-65
2023/08/25 01:31:19;;;;;;;11.88;5.30;;;;;;;;;;5014681;28;20033;-66
2023/08/25 01:33:46;;;;;;;11.65;5.07;;;;;;;;;;5017140;28;20021;-65
2023/08/25 01:36:21;;;;;;;14.02;5.78;;;;;;;;;;5014275;28;20074;-65
2023/08/25 01:38:52;;;;;;;10.25;5.25;;;;;;;;;;4994596;28;20076;-67
2023/08/25 01:41:19;;;;;;;11.20;5.68;;;;;;;;;;5016920;28;20486;-65
2023/08/25 01:43:47;;;;;;;11.43;5.80;;;;;;;;;;5018000;28;20041;-66
2023/08/25 01:46:14;;;;;;;11.73;5.70;;;;;;;;;;5017347;28;20026;-66
2023/08/25 01:48:43;;;;;;;11.68;7.13;;;;;;;;;;5001792;28;20128;-65
2023/08/25 01:51:09;;;;;;;10.63;6.40;;;;;;;;;;5013219;28;20033;-66
2023/08/25 01:53:36;;;;;;;11.57;5.90;;;;;;;;;;5012917;28;20032;-65
2023/08/25 01:56:02;;;;;;;10.63;5.68;;;;;;;;;;4999090;28;20032;-66
2023/08/25 01:58:28;;;;;;;9.77;5.53;;;;;;;;;;5013596;28;20062;-65
2023/08/25 02:00:55;;;;;;;11.95;6.28;;;;;;;;;;5017078;28;20243;-65
2023/08/25 02:03:21;;;;;;;11.60;6.00;;;;;;;;;;4993330;28;20044;-65
2023/08/25 02:05:47;;;;;;;9.73;5.53;;;;;;;;;;5017649;28;20393;-65
2023/08/25 02:08:13;;;;;;;10.73;6.20;;;;;;;;;;5013391;28;20039;-65
2023/08/25 02:10:39;;;;;;;9.63;5.20;;;;;;;;;;5015648;28;20277;-65
2023/08/25 02:13:05;;;;;;;10.50;5.30;;;;;;;;;;5011362;28;20033;-65
2023/08/25 02:15:31;;;;;;;10.65;5.40;;;;;;;;;;5014470;28;20568;-67
2023/08/25 02:17:57;;;;;;;14.55;5.47;;;;;;;;;;5016761;28;20060;-65
2023/08/25 02:20:24;;;;;;;12.43;5.05;;;;;;;;;;5013467;28;20029;-66
2023/08/25 02:22:50;;;;;;;9.23;4.57;;;;;;;;;;5000012;28;20397;-68
2023/08/25 02:25:16;;;;;;;11.02;5.07;;;;;;;;;;5013527;28;20296;-66
2023/08/25 02:27:42;;;;;;;10.48;5.00;;;;;;;;;;5016422;28;20040;-66
2023/08/25 02:30:09;;;;;;;10.65;4.75;;;;;;;;;;4997423;28;20022;-66
2023/08/25 02:32:35;;;;;;;8.73;4.60;;;;;;;;;;5013055;28;20997;-67
2023/08/25 02:35:01;;;;;;;11.43;5.05;;;;;;;;;;5016279;28;20083;-66
2023/08/25 02:37:27;;;;;;;9.23;4.80;;;;;;;;;;5015490;28;20080;-67
2023/08/25 02:39:53;;;;;;;10.55;4.93;;;;;;;;;;5019131;28;20025;-66
2023/08/25 02:42:19;;;;;;;9.20;4.90;;;;;;;;;;5016278;28;20440;-66
2023/08/25 02:44:45;;;;;;;10.48;4.50;;;;;;;;;;5019567;28;20079;-66
2023/08/25 02:47:12;;;;;;;11.15;4.68;;;;;;;;;;5019528;28;20091;-66
2023/08/25 02:49:39;;;;;;;9.45;4.47;;;;;;;;;;5022020;28;20037;-65
2023/08/25 02:52:06;;;;;;;10.90;4.53;;;;;;;;;;5020429;28;20120;-67
2023/08/25 02:54:32;;;;;;;10.80;5.07;;;;;;;;;;5018641;28;20727;-67
2023/08/25 02:56:58;;;;;;;9.95;4.60;;;;;;;;;;5021846;28;20176;-65
2023/08/25 02:59:24;;;;;;;10.50;4.70;;;;;;;;;;5015745;28;20021;-65
2023/08/25 03:01:51;;;;;;;10.32;4.80;;;;;;;;;;5002210;28;20060;-65
2023/08/25 03:04:17;;;;;;;12.15;4.38;;;;;;;;;;5004595;28;20029;-65
2023/08/25 03:06:44;;;;;;;8.55;4.32;;;;;;;;;;5005260;28;20086;-65
2023/08/25 03:09:10;;;;;;;8.88;4.60;;;;;;;;;;5000773;28;20261;-65
2023/08/25 03:11:36;;;;;;;9.55;4.47;;;;;;;;;;5018395;28;20044;-65
2023/08/25 03:14:02;;;;;;;9.15;4.57;;;;;;;;;;5020789;28;20116;-65
2023/08/25 03:16:28;;;;;;;10.73;4.78;;;;;;;;;;5020508;28;20519;-65
2023/08/25 03:18:54;;;;;;;10.43;4.50;;;;;;;;;;5008109;28;20029;-65
2023/08/25 03:21:21;;;;;;;9.20;4.20;;;;;;;;;;5017413;28;20037;-64
2023/08/25 03:23:47;;;;;;;11.50;4.50;;;;;;;;;;5006501;28;20497;-67
2023/08/25 03:26:13;;;;;;;9.65;4.40;;;;;;;;;;5019407;28;20043;-68
2023/08/25 03:28:39;;;;;;;9.93;4.75;;;;;;;;;;5019320;28;20499;-67
2023/08/25 03:31:05;;;;;;;10.57;4.97;;;;;;;;;;5023758;28;20064;-66
2023/08/25 03:33:31;;;;;;;10.85;4.70;;;;;;;;;;5018374;28;21434;-67
2023/08/25 03:35:58;;;;;;;10.05;4.85;;;;;;;;;;5020684;28;20029;-67
2023/08/25 03:38:24;;;;;;;10.30;5.00;;;;;;;;;;4999296;28;20052;-67
2023/08/25 03:40:57;;;;;;;9.40;4.88;;;;;;;;;;5021663;28;20058;-65
2023/08/25 03:43:23;;;;;;;9.57;4.60;;;;;;;;;;5000555;28;20028;-68
2023/08/25 03:45:49;;;;;;;9.07;4.45;;;;;;;;;;5022055;28;20501;-68
2023/08/25 03:48:15;;;;;;;9.30;4.20;;;;;;;;;;5018886;28;20548;-65
2023/08/25 03:50:46;;;;;;;9.25;4.25;;;;;;;;;;5001773;28;20030;-65
2023/08/25 03:53:12;;;;;;;11.65;4.47;;;;;;;;;;5020637;28;20080;-67
2023/08/25 03:55:38;;;;;;;11.38;4.82;;;;;;;;;;5004979;28;20052;-65
2023/08/25 03:58:04;;;;;;;12.60;4.85;;;;;;;;;;5021011;28;20068;-65
2023/08/25 04:00:30;;;;;;;14.27;5.28;;;;;;;;;;5017475;28;20032;-66
2023/08/25 04:02:57;;;;;;;10.30;5.10;;;;;;;;;;5021844;28;20150;-65
2023/08/25 04:05:23;;;;;;;12.00;5.22;;;;;;;;;;5017762;28;20032;-65
2023/08/25 04:07:49;;;;;;;8.52;4.78;;;;;;;;;;5022013;28;20106;-65
2023/08/25 04:10:15;;;;;;;9.35;4.30;;;;;;;;;;5017098;28;20140;-65
2023/08/25 04:12:41;;;;;;;11.27;4.60;;;;;;;;;;4999660;28;20049;-66
2023/08/25 04:15:08;;;;;;;10.75;4.78;;;;;;;;;;5019204;28;20025;-66
2023/08/25 04:17:34;;;;;;;9.38;4.38;;;;;;;;;;5015542;28;20040;-65
2023/08/25 04:20:02;;;;;;;9.20;4.43;;;;;;;;;;5020641;28;20278;-65
2023/08/25 04:22:28;;;;;;;9.63;4.80;;;;;;;;;;4999537;28;20064;-66
2023/08/25 04:24:54;;;;;;;10.07;4.90;;;;;;;;;;5000731;28;20033;-67
2023/08/25 04:27:20;;;;;;;10.77;4.63;;;;;;;;;;5001933;28;20610;-65
2023/08/25 04:29:46;;;;;;;10.38;4.47;;;;;;;;;;5020894;28;20478;-64
2023/08/25 04:32:14;;;;;;;11.05;4.30;;;;;;;;;;5015410;28;20040;-66
2023/08/25 04:34:40;;;;;;;11.45;4.47;;;;;;;;;;5021364;28;20048;-66
2023/08/25 04:37:06;;;;;;;9.55;4.30;;;;;;;;;;5020150;28;21096;-66
2023/08/25 04:39:32;;;;;;;12.70;4.35;;;;;;;;;;5014773;28;21457;-66
2023/08/25 04:41:58;;;;;;;11.57;4.90;;;;;;;;;;5018283;28;20029;-66
2023/08/25 04:44:24;;;;;;;9.98;4.60;;;;;;;;;;5019288;28;20043;-66
2023/08/25 04:46:50;;;;;;;10.95;4.47;;;;;;;;;;5021957;28;20498;-67
2023/08/25 04:49:17;;;;;;;12.82;5.22;;;;;;;;;;5017707;28;20033;-66
2023/08/25 04:51:43;;;;;;;14.40;5.18;;;;;;;;;;5017590;28;20040;-66
2023/08/25 04:54:10;;;;;;;11.57;5.45;;;;;;;;;;5005947;28;20034;-66
2023/08/25 04:56:36;;;;;;;10.98;4.85;;;;;;;;;;5016855;28;20484;-66
2023/08/25 04:59:03;;;;;;;13.40;5.60;;;;;;;;;;5001573;28;20340;-66
2023/08/25 05:01:29;;;;;;;18.25;5.97;;;;;;;;;;5014693;28;20224;-66
2023/08/25 05:03:55;;;;;;;13.05;6.47;;;;;;;;;;5018779;28;20118;-66
2023/08/25 05:06:21;;;;;;;14.48;5.53;;;;;;;;;;4998670;28;20549;-66
2023/08/25 05:08:47;;;;;;;13.85;5.72;;;;;;;;;;5001153;28;20167;-67
2023/08/25 05:11:14;;;;;;;14.88;5.60;;;;;;;;;;5000273;28;20162;-66
2023/08/25 05:13:40;;;;;;;13.52;5.63;;;;;;;;;;4998636;28;20067;-66
2023/08/25 05:16:07;;;;;;;13.35;5.70;;;;;;;;;;5015932;28;20713;-65
2023/08/25 05:18:33;;;;;;;11.65;5.78;;;;;;;;;;5015806;28;20044;-66
2023/08/25 05:21:00;;;;;;;16.63;7.07;;;;;;;;;;5015959;28;20033;-65
2023/08/25 05:23:27;;;;;;;13.93;6.55;;;;;;;;;;5014963;28;20048;-65
2023/08/25 05:25:53;;;;;;;14.93;6.10;;;;;;;;;;4999127;28;20009;-65
2023/08/25 05:28:19;;;;;;;12.98;6.22;;;;;;;;;;5013777;28;20548;-65
2023/08/25 05:30:46;;;;;;;13.18;5.43;;;;;;;;;;5016158;28;20032;-65
2023/08/25 05:33:12;;;;;;;11.15;5.07;;;;;;;;;;4994814;28;20159;-65
2023/08/25 05:35:39;;;;;;;10.30;4.80;;;;;;;;;;5001345;28;20036;-65
2023/08/25 05:38:06;;;;;;;10.40;4.65;;;;;;;;;;4983115;28;20424;-65
2023/08/25 05:40:32;;;;;;;10.43;4.28;;;;;;;;;;4975949;28;21873;-65
2023/08/25 05:42:58;;;;;;;10.63;4.25;;;;;;;;;;4975396;28;20038;-65
2023/08/25 05:45:24;;;;;;;12.10;4.47;;;;;;;;;;4973631;28;20362;-65
2023/08/25 05:47:50;;;;;;;11.60;4.25;;;;;;;;;;4979768;28;20748;-66
2023/08/25 05:50:17;;;;;;;11.07;3.90;;;;;;;;;;4979246;28;20030;-65
2023/08/25 05:52:45;;;;;;;11.18;3.72;;;;;;;;;;4974364;28;20044;-65
2023/08/25 05:55:16;;;;;;;12.07;4.07;;;;;;;;;;4973453;28;20065;-65
2023/08/25 05:57:42;;;;;;;10.55;3.67;;;;;;;;;;4975869;28;20332;-65
2023/08/25 06:00:09;;;;;;;10.27;3.72;;;;;;;;;;4976550;28;20033;-67
2023/08/25 06:02:35;;;;;;;13.13;3.97;;;;;;;;;;4975829;28;20053;-65
2023/08/25 06:05:01;;;;;;;11.18;4.05;;;;;;;;;;4975173;28;20763;-65
2023/08/25 06:07:27;;;;;;;12.35;4.68;;;;;;;;;;4973248;28;20125;-65
2023/08/25 06:09:53;;;;;;;13.85;5.55;;;;;;;;;;4982077;28;20030;-65
2023/08/25 06:12:20;;;;;;;16.80;5.88;;;;;;;;;;4977685;28;20340;-65
2023/08/25 06:14:47;;;;;;;16.50;6.20;;;;;;;;;;4985381;28;20503;-66
2023/08/25 06:17:13;;;;;;;19.65;7.30;;;;;;;;;;4977143;28;20540;-65
2023/08/25 06:19:40;;;;;;;16.88;7.28;;;;;;;;;;4987682;28;20026;-66
2023/08/25 06:22:06;;;;;;;18.23;7.15;;;;;;;;;;4984988;28;20026;-66
2023/08/25 06:24:32;;;;;;;17.15;7.53;;;;;;;;;;4980764;28;20037;-65
2023/08/25 06:26:58;;;;;;;24.17;7.50;;;;;;;;;;4988874;28;20460;-66
2023/08/25 06:29:24;;;;;;;23.50;7.70;;;;;;;;;;4987530;28;20109;-65
2023/08/25 06:31:50;;;;;;;26.20;7.40;;;;;;;;;;4983116;28;20387;-65
2023/08/25 06:34:16;;;;;;;22.50;7.28;;;;;;;;;;4981272;28;20107;-65
2023/08/25 06:36:42;;;;;;;19.02;6.72;;;;;;;;;;4994107;28;20040;-66
2023/08/25 06:39:09;;;;;;;22.05;6.32;;;;;;;;;;5026075;28;20041;-66
2023/08/25 06:41:35;;;;;;;20.00;7.10;;;;;;;;;;5022145;28;20036;-66
2023/08/25 06:44:01;;;;;;;27.30;7.10;;;;;;;;;;5026401;28;20256;-65
2023/08/25 06:46:28;;;;;;;23.25;6.53;;;;;;;;;;5021232;28;20527;-65
2023/08/25 06:48:54;;;;;;;21.20;6.63;;;;;;;;;;5005430;28;20045;-64
2023/08/25 06:51:20;;;;;;;22.35;6.68;;;;;;;;;;5021715;28;20018;-65
2023/08/25 06:53:46;;;;;;;21.85;6.60;;;;;;;;;;5021009;28;20033;-67
2023/08/25 06:56:12;;;;;;;24.60;6.88;;;;;;;;;;5000031;28;20443;-65
2023/08/25 06:58:39;;;;;;;29.00;6.43;;;;;;;;;;5003560;28;20036;-65
2023/08/25 07:01:05;;;;;;;18.73;6.43;;;;;;;;;;5022935;28;20029;-65
2023/08/25 07:03:31;;;;;;;20.70;6.18;;;;;;;;;;5019671;28;20041;-65
2023/08/25 07:05:58;;;;;;;17.67;5.93;;;;;;;;;;5005849;28;20025;-65
2023/08/25 07:08:25;;;;;;;17.65;5.95;;;;;;;;;;5020882;28;20080;-64
2023/08/25 07:10:51;;;;;;;19.45;5.93;;;;;;;;;;5024380;28;20496;-65
2023/08/25 07:13:18;;;;;;;21.25;5.85;;;;;;;;;;5022112;28;20029;-66
2023/08/25 07:15:44;;;;;;;19.95;5.35;;;;;;;;;;5006592;28;20405;-65
2023/08/25 07:18:10;;;;;;;16.38;4.40;;;;;;;;;;5021627;28;20044;-65
2023/08/25 07:20:37;;;;;;;14.25;4.60;;;;;;;;;;5024218;28;20032;-67
2023/08/25 07:23:03;;;;;;;15.93;4.82;;;;;;;;;;5024481;28;20478;-67
2023/08/25 07:25:29;;;;;;;14.98;4.95;;;;;;;;;;5019182;28;20082;-67
2023/08/25 07:27:55;;;;;;;14.48;4.40;;;;;;;;;;5022377;28;20781;-67
2023/08/25 07:30:21;;;;;;;15.32;4.20;;;;;;;;;;5016260;28;20125;-66
2023/08/25 07:32:51;;;;;;;17.17;4.30;;;;;;;;;;5019922;28;20034;-66
2023/08/25 07:35:17;;;;;;;16.48;4.40;;;;;;;;;;5017825;28;20104;-66
2023/08/25 07:37:43;;;;;;;13.75;4.10;;;;;;;;;;5021318;28;20139;-66
2023/08/25 07:40:10;;;;;;;13.80;3.30;;;;;;;;;;5001305;28;20119;-66
2023/08/25 07:42:36;;;;;;;13.27;3.80;;;;;;;;;;5017751;28;20042;-66
2023/08/25 07:45:02;;;;;;;13.13;3.70;;;;;;;;;;5019631;28;20448;-65
2023/08/25 07:47:29;;;;;;;11.57;3.88;;;;;;;;;;5014705;28;20824;-65
2023/08/25 07:49:55;;;;;;;14.85;3.95;;;;;;;;;;5021698;28;20468;-65
2023/08/25 07:52:21;;;;;;;10.85;3.90;;;;;;;;;;5014924;28;20052;-65
2023/08/25 07:54:47;;;;;;;14.20;3.70;;;;;;;;;;5012250;28;20147;-65
2023/08/25 07:57:13;;;;;;;11.95;3.40;;;;;;;;;;5000269;28;20760;-65
2023/08/25 07:59:39;;;;;;;12.43;3.25;;;;;;;;;;5021632;28;20017;-64
2023/08/25 08:02:06;;;;;;;11.00;3.33;;;;;;;;;;5019504;28;20030;-65
2023/08/25 08:04:32;;;;;;;10.50;3.63;;;;;;;;;;5016891;28;21980;-66
2023/08/25 08:07:00;;;;;;;8.88;3.28;;;;;;;;;;5017022;28;20037;-67
2023/08/25 08:09:26;;;;;;;11.15;3.55;;;;;;;;;;4998963;28;20459;-67
2023/08/25 08:11:53;;;;;;;9.77;3.60;;;;;;;;;;5016137;28;20022;-65
2023/08/25 08:14:19;;;;;;;11.30;3.60;;;;;;;;;;5015115;28;20037;-65
2023/08/25 08:16:45;;;;;;;8.25;3.13;;;;;;;;;;5019474;28;20094;-65
2023/08/25 08:19:12;;;;;;;12.43;3.85;;;;;;;;;;5015696;28;20029;-65
2023/08/25 08:21:38;;;;;;;9.55;3.50;;;;;;;;;;5017499;28;20497;-65
2023/08/25 08:24:04;;;;;;;9.25;3.05;;;;;;;;;;5016916;28;20119;-65
2023/08/25 08:26:31;;;;;;;10.10;3.17;;;;;;;;;;5016338;28;20029;-65
2023/08/25 08:28:57;;;;;;;8.63;2.88;;;;;;;;;;5018547;28;20033;-66
2023/08/25 08:31:23;;;;;;;9.93;3.30;;;;;;;;;;5015337;28;20483;-67
2023/08/25 08:33:49;;;;;;;7.28;3.13;;;;;;;;;;5002411;28;20068;-67
2023/08/25 08:36:16;;;;;;;7.88;3.30;;;;;;;;;;5014774;28;20060;-66
2023/08/25 08:38:42;;;;;;;9.70;3.20;;;;;;;;;;5016015;28;20073;-67
2023/08/25 08:41:09;;;;;;;10.00;3.22;;;;;;;;;;5003454;28;20045;-67
2023/08/25 08:43:38;;;;;;;7.50;3.05;;;;;;;;;;5013728;28;20443;-67
2023/08/25 08:46:05;;;;;;;8.52;3.25;;;;;;;;;;5014330;28;20030;-67
2023/08/25 08:48:36;;;;;;;7.68;2.85;;;;;;;;;;5013034;28;20029;-66
2023/08/25 08:51:02;;;;;;;11.70;2.95;;;;;;;;;;5016845;28;20174;-66
2023/08/25 08:53:29;;;;;;;7.20;2.80;;;;;;;;;;5010991;28;20277;-66
2023/08/25 08:55:55;;;;;;;9.00;3.30;;;;;;;;;;5014616;28;20037;-66
2023/08/25 08:58:22;;;;;;;8.73;3.40;;;;;;;;;;5011926;28;20038;-66
2023/08/25 09:00:48;;;;;;;8.43;3.20;;;;;;;;;;5019295;28;20435;-66
2023/08/25 09:03:19;;;;;;;9.93;3.15;;;;;;;;;;4997552;28;20418;-65
2023/08/25 09:05:45;;;;;;;8.85;3.30;;;;;;;;;;5012380;28;20124;-65
2023/08/25 09:08:12;;;;;;;10.93;3.30;;;;;;;;;;4998460;28;20047;-65
2023/08/25 09:10:38;;;;;;;7.95;3.20;;;;;;;;;;5014614;28;20034;-65
2023/08/25 09:13:05;;;;;;;7.78;3.40;;;;;;;;;;5018835;28;20806;-66
2023/08/25 09:15:32;;;;;;;9.02;3.47;;;;;;;;;;5002135;28;20032;-65
2023/08/25 09:18:06;;;;;;;10.23;4.00;;;;;;;;;;5019933;28;20231;-65
2023/08/25 09:20:34;;;;;;;8.50;3.47;;;;;;;;;;5013862;28;20191;-66
2023/08/25 09:23:00;;;;;;;9.25;3.67;;;;;;;;;;5014391;28;20578;-65
2023/08/25 09:25:27;;;;;;;9.55;3.58;;;;;;;;;;4996773;28;20033;-65
2023/08/25 09:27:57;;;;;;;8.95;3.45;;;;;;;;;;5002744;28;20479;-65
2023/08/25 09:30:34;;;;;;;8.65;3.17;;;;;;;;;;5014297;28;20333;-66
2023/08/25 09:33:10;;;;;;;7.97;3.00;;;;;;;;;;5017866;28;20722;-65
2023/08/25 09:35:39;;;;;;;7.88;3.05;;;;;;;;;;5014393;28;20420;-66
2023/08/25 09:38:08;;;;;;;9.30;3.10;;;;;;;;;;5001968;28;20096;-67
2023/08/25 09:40:35;;;;;;;7.20;3.08;;;;;;;;;;4998352;28;20044;-65
2023/08/25 09:43:02;;;;;;;8.57;3.30;;;;;;;;;;5016719;28;20025;-66
2023/08/25 09:45:29;;;;;;;9.85;3.35;;;;;;;;;;5002473;28;20463;-65
2023/08/25 09:48:08;;;;;;;8.82;3.00;;;;;;;;;;5020927;28;20551;-65
2023/08/25 09:50:38;;;;;;;8.32;3.17;;;;;;;;;;5016958;28;20686;-66
2023/08/25 09:53:05;;;;;;;10.48;3.30;;;;;;;;;;5017287;28;20507;-65
2023/08/25 09:55:33;;;;;;;11.05;3.40;;;;;;;;;;5016258;28;20067;-65
2023/08/25 09:57:59;;;;;;;8.10;3.20;;;;;;;;;;5020925;28;20029;-66
2023/08/25 10:00:25;;;;;;;9.52;3.58;;;;;;;;;;5018459;28;20044;-65
2023/08/25 10:02:53;;;;;;;6.68;2.80;;;;;;;;;;5004089;28;20129;-66
2023/08/25 10:05:20;;;;;;;7.70;3.05;;;;;;;;;;5011840;28;20035;-66
2023/08/25 10:07:46;;;;;;;9.05;3.50;;;;;;;;;;4997893;28;20041;-66
2023/08/25 10:10:13;;;;;;;8.65;3.40;;;;;;;;;;5014070;28;20457;-66
2023/08/25 10:12:40;;;;;;;8.38;3.03;;;;;;;;;;5016877;28;20064;-65
2023/08/25 10:15:09;;;;;;;10.10;3.45;;;;;;;;;;5021577;28;20036;-66
2023/08/25 10:17:36;;;;;;;10.77;3.00;;;;;;;;;;4999487;28;20082;-65
2023/08/25 10:20:04;;;;;;;12.70;3.22;;;;;;;;;;5018613;28;20383;-68
2023/08/25 10:22:31;;;;;;;6.43;2.97;;;;;;;;;;5014019;28;20068;-66
2023/08/25 10:25:01;;;;;;;13.35;3.20;;;;;;;;;;5014484;28;20237;-66
2023/08/25 10:27:28;;;;;;;8.63;3.40;;;;;;;;;;4999064;28;20039;-66
2023/08/25 10:29:54;;;;;;;9.80;3.00;;;;;;;;;;5017730;28;20139;-65
2023/08/25 10:32:21;;;;;;;7.63;3.13;;;;;;;;;;5000393;28;20033;-66
2023/08/25 10:34:52;;;;;;;8.60;3.40;;;;;;;;;;5017698;28;20223;-65
2023/08/25 10:37:26;;;;;;;9.02;3.10;;;;;;;;;;4980218;28;20041;-65
2023/08/25 10:39:53;;;;;;;11.23;3.42;;;;;;;;;;5018151;28;20160;-65
2023/08/25 10:42:32;;;;;;;9.00;3.50;;;;;;;;;;5016836;28;20033;-66
2023/08/25 10:45:02;;;;;;;9.95;3.33;;;;;;;;;;5018858;28;20039;-65
2023/08/25 10:47:29;;;;;;;12.52;3.83;;;;;;;;;;5017639;28;20029;-66
2023/08/25 10:49:55;;;;;;;9.13;3.50;;;;;;;;;;5016406;28;20626;-66
2023/08/25 10:52:22;;;;;;;7.55;3.30;;;;;;;;;;4995052;28;20503;-66
2023/08/25 10:54:51;;;;;;;8.05;3.45;;;;;;;;;;5016722;28;20470;-66
2023/08/25 10:57:37;;;;;;;9.55;3.55;;;;;;;;;;4998654;28;20033;-66
2023/08/25 11:00:43;;;;;;;7.35;3.30;;;;;;;;;;4992337;28;20083;-66
2023/08/25 11:03:09;;;;;;;11.77;3.60;;;;;;;;;;4943039;28;20039;-66
2023/08/25 11:05:36;;;;;;;8.43;2.90;;;;;;;;;;4940183;28;20058;-66
2023/08/25 11:08:03;;;;;;;8.43;3.40;;;;;;;;;;4944681;28;20035;-66
2023/08/25 11:10:31;;;;;;;11.18;3.10;;;;;;;;;;4926324;28;20051;-66
2023/08/25 11:12:59;;;;;;;10.43;3.28;;;;;;;;;;4941251;28;20032;-66
2023/08/25 11:15:26;;;;;;;9.80;3.53;;;;;;;;;;4941273;28;20039;-66
2023/08/25 11:17:53;;;;;;;13.07;3.15;;;;;;;;;;4943958;28;20086;-68
2023/08/25 11:20:19;;;;;;;9.27;3.42;;;;;;;;;;4940904;28;20068;-68
2023/08/25 11:22:52;;;;;;;10.63;3.65;;;;;;;;;;4947489;28;20107;-68
2023/08/25 11:25:19;;;;;;;8.35;3.42;;;;;;;;;;4940997;28;20056;-68
2023/08/25 11:27:51;;;;;;;8.43;3.47;;;;;;;;;;4943461;28;20046;-66
2023/08/25 11:30:17;;;;;;;10.70;3.40;;;;;;;;;;4939968;28;20047;-66
2023/08/25 11:32:47;;;;;;;11.88;3.47;;;;;;;;;;4928917;28;20041;-68
2023/08/25 11:35:13;;;;;;;8.57;3.15;;;;;;;;;;4940303;28;20130;-67
2023/08/25 11:37:41;;;;;;;9.73;3.40;;;;;;;;;;4997403;28;20156;-68
2023/08/25 11:40:12;;;;;;;9.02;2.88;;;;;;;;;;5021834;28;20029;-68
2023/08/25 11:42:40;;;;;;;10.45;3.10;;;;;;;;;;5021740;28;20299;-68
2023/08/25 11:45:09;;;;;;;8.63;3.10;;;;;;;;;;5020462;28;20060;-68
2023/08/25 11:47:35;;;;;;;10.07;3.20;;;;;;;;;;5018278;28;20491;-66
2023/08/25 11:50:03;;;;;;;8.70;2.95;;;;;;;;;;5021411;28;20026;-66
2023/08/25 11:52:29;;;;;;;9.77;3.17;;;;;;;;;;5014512;28;20252;-66
2023/08/25 11:54:55;;;;;;;8.07;2.70;;;;;;;;;;5018976;28;20547;-66
2023/08/25 11:57:21;;;;;;;10.43;3.17;;;;;;;;;;5018909;28;20043;-66
2023/08/25 11:59:48;;;;;;;9.75;2.95;;;;;;;;;;5023557;28;20025;-67
2023/08/25 12:02:15;;;;;;;9.13;3.15;;;;;;;;;;5015371;28;20455;-67
2023/08/25 12:04:52;;;;;;;9.05;2.90;;;;;;;;;;5023033;28;20029;-67
2023/08/25 12:07:26;;;;;;;9.40;3.00;;;;;;;;;;5000932;28;20475;-66
2023/08/25 12:09:56;;;;;;;9.95;3.25;;;;;;;;;;5003813;28;20044;-67
2023/08/25 12:12:22;;;;;;;10.68;3.28;;;;;;;;;;5017637;28;20025;-67
2023/08/25 12:14:52;;;;;;;11.18;3.45;;;;;;;;;;5021796;28;20037;-67
2023/08/25 12:17:24;;;;;;;11.05;3.25;;;;;;;;;;5016335;28;20139;-67
2023/08/25 12:19:50;;;;;;;11.05;3.15;;;;;;;;;;4999521;28;20029;-66
2023/08/25 12:22:16;;;;;;;7.95;3.15;;;;;;;;;;5017532;28;20308;-67
2023/08/25 12:24:46;;;;;;;9.48;3.10;;;;;;;;;;5016741;28;20325;-66
2023/08/25 12:27:13;;;;;;;10.35;3.50;;;;;;;;;;5017013;28;20628;-66
2023/08/25 12:29:40;;;;;;;9.40;3.33;;;;;;;;;;5018356;28;20029;-68
2023/08/25 12:32:09;;;;;;;7.13;3.03;;;;;;;;;;5001014;28;20483;-66
2023/08/25 12:34:36;;;;;;;8.40;3.10;;;;;;;;;;4995895;28;20114;-67
2023/08/25 12:37:03;;;;;;;9.35;3.30;;;;;;;;;;5017954;28;20511;-67
2023/08/25 12:39:29;;;;;;;8.43;3.10;;;;;;;;;;5016316;28;20468;-67
2023/08/25 12:41:55;;;;;;;8.82;2.88;;;;;;;;;;5018067;28;20029;-67
2023/08/25 12:44:22;;;;;;;8.82;2.90;;;;;;;;;;4997663;28;20657;-67
2023/08/25 12:46:48;;;;;;;8.82;2.80;;;;;;;;;;5000542;28;20025;-67
2023/08/25 12:49:15;;;;;;;9.80;2.90;;;;;;;;;;5017969;28;20145;-67
2023/08/25 12:51:41;;;;;;;9.77;3.40;;;;;;;;;;5018910;28;20704;-67
2023/08/25 12:54:15;;;;;;;6.85;2.90;;;;;;;;;;5000985;28;20095;-67
2023/08/25 12:56:42;;;;;;;7.50;2.88;;;;;;;;;;5019063;28;20059;-69
2023/08/25 12:59:08;;;;;;;11.38;3.05;;;;;;;;;;5020044;28;20025;-68
2023/08/25 13:01:34;;;;;;;10.25;3.10;;;;;;;;;;5018714;28;20598;-69
2023/08/25 13:04:00;;;;;;;9.18;3.10;;;;;;;;;;5002015;28;20820;-69
2023/08/25 13:06:26;;;;;;;7.25;2.67;;;;;;;;;;4998143;28;20187;-68
2023/08/25 13:08:52;;;;;;;10.90;3.17;;;;;;;;;;5018246;28;20037;-67
2023/08/25 13:11:18;;;;;;;8.02;2.92;;;;;;;;;;5014201;28;20453;-67
2023/08/25 13:13:44;;;;;;;9.20;3.00;;;;;;;;;;5015992;28;20696;-67
2023/08/25 13:16:11;;;;;;;7.85;2.60;;;;;;;;;;5018115;28;20033;-68
2023/08/25 13:18:38;;;;;;;10.18;3.10;;;;;;;;;;5018624;28;20025;-68
2023/08/25 13:21:04;;;;;;;8.38;3.08;;;;;;;;;;4998113;28;20037;-68
2023/08/25 13:23:30;;;;;;;8.75;2.83;;;;;;;;;;5009827;28;20121;-67
2023/08/25 13:25:57;;;;;;;9.40;3.15;;;;;;;;;;5018979;28;20144;-67
2023/08/25 13:28:23;;;;;;;10.50;3.42;;;;;;;;;;4998011;28;20033;-67
2023/08/25 13:30:49;;;;;;;8.85;2.55;;;;;;;;;;5020926;28;20029;-68
2023/08/25 13:33:15;;;;;;;9.90;3.05;;;;;;;;;;5012589;28;20041;-68
2023/08/25 13:35:41;;;;;;;7.88;3.00;;;;;;;;;;5018868;28;20052;-68
2023/08/25 13:38:09;;;;;;;8.68;3.05;;;;;;;;;;5017750;28;20064;-68
2023/08/25 13:40:35;;;;;;;7.65;2.80;;;;;;;;;;5016728;28;20036;-68
2023/08/25 13:43:02;;;;;;;12.25;3.00;;;;;;;;;;5016884;28;20667;-66
2023/08/25 13:45:28;;;;;;;9.93;2.90;;;;;;;;;;5016438;28;20136;-69
2023/08/25 13:47:55;;;;;;;10.65;2.95;;;;;;;;;;5019150;28;20159;-69
2023/08/25 13:50:21;;;;;;;9.43;2.80;;;;;;;;;;4995735;28;20018;-68
2023/08/25 13:52:47;;;;;;;10.00;3.08;;;;;;;;;;5016775;28;20028;-68
2023/08/25 13:55:14;;;;;;;8.57;2.58;;;;;;;;;;5012645;28;20412;-67
2023/08/25 13:57:40;;;;;;;9.93;3.22;;;;;;;;;;5003721;28;20021;-67
2023/08/25 14:00:07;;;;;;;9.60;3.47;;;;;;;;;;5016128;28;20025;-67
2023/08/25 14:02:33;;;;;;;8.55;3.20;;;;;;;;;;4998675;28;20339;-68
2023/08/25 14:05:00;;;;;;;7.45;2.85;;;;;;;;;;5018043;28;20455;-68
2023/08/25 14:07:26;;;;;;;10.95;3.05;;;;;;;;;;5015329;28;20798;-68
2023/08/25 14:09:52;;;;;;;8.48;2.75;;;;;;;;;;5016542;28;20028;-67
2023/08/25 14:12:18;;;;;;;10.45;3.05;;;;;;;;;;5015054;28;20132;-68
2023/08/25 14:14:47;;;;;;;7.47;3.03;;;;;;;;;;5002309;28;20087;-67
2023/08/25 14:17:13;;;;;;;8.32;2.97;;;;;;;;;;5014398;28;20037;-68
2023/08/25 14:19:39;;;;;;;11.02;3.28;;;;;;;;;;5015727;28;20349;-67
2023/08/25 14:22:05;;;;;;;10.63;3.38;;;;;;;;;;5013623;28;20372;-68
2023/08/25 14:24:32;;;;;;;8.70;3.20;;;;;;;;;;5013404;28;20099;-68
2023/08/25 14:26:58;;;;;;;12.52;3.00;;;;;;;;;;5015296;28;20045;-69
2023/08/25 14:29:25;;;;;;;8.98;3.25;;;;;;;;;;5012775;28;20801;-67
2023/08/25 14:31:51;;;;;;;8.75;3.35;;;;;;;;;;4997099;28;20037;-68
2023/08/25 14:34:17;;;;;;;11.63;3.53;;;;;;;;;;5013174;28;20601;-67